sensor_id;sensor_type;location;lat;lon;timestamp;temperature;humidity
71297;SHT31;59082;50.658;4.608;2023-06-01T00:01:57;14.44;99.99
71297;SHT31;59082;50.658;4.608;2023-06-01T00:04:25;14.41;99.99
71297;SHT31;59082;50.658;4.608;2023-06-01T00:06:51;14.40;99.99
71297;SHT31;59082;50.658;4.608;2023-06-01T00:09:16;14.40;99.99
71297;SHT31;59082;50.658;4.608;2023-06-01T00:11:42;14.36;99.99
71297;SHT31;59082;50.658;4.608;2023-06-01T00:14:10;14.28;99.99
71297;SHT31;59082;50.658;4.608;2023-06-01T00:16:38;14.20;99.99
71297;SHT31;59082;50.658;4.608;2023-06-01T00:19:04;14.19;99.99
71297;SHT31;59082;50.658;4.608;2023-06-01T00:21:32;14.20;99.99
71297;SHT31;59082;50.658;4.608;2023-06-01T00:23:58;14.19;99.99
71297;SHT31;59082;50.658;4.608;2023-06-01T00:26:24;14.05;99.99
71297;SHT31;59082;50.658;4.608;2023-06-01T00:28:50;14.09;99.99
71297;SHT31;59082;50.658;4.608;2023-06-01T00:31:16;14.08;99.99
71297;SHT31;59082;50.658;4.608;2023-06-01T00:33:42;14.02;99.99
71297;SHT31;59082;50.658;4.608;2023-06-01T00:36:10;13.92;99.99
71297;SHT31;59082;50.658;4.608;2023-06-01T00:38:38;13.86;99.99
71297;SHT31;59082;50.658;4.608;2023-06-01T00:41:03;13.85;99.99
71297;SHT31;59082;50.658;4.608;2023-06-01T00:43:30;13.82;99.99
71297;SHT31;59082;50.658;4.608;2023-06-01T00:45:56;13.77;99.99
71297;SHT31;59082;50.658;4.608;2023-06-01T00:48:25;13.71;99.99
71297;SHT31;59082;50.658;4.608;2023-06-01T00:50:51;13.65;99.99
71297;SHT31;59082;50.658;4.608;2023-06-01T00:53:18;13.65;99.99
71297;SHT31;59082;50.658;4.608;2023-06-01T00:55:46;13.63;99.99
71297;SHT31;59082;50.658;4.608;2023-06-01T00:58:15;13.54;99.99
71297;SHT31;59082;50.658;4.608;2023-06-01T01:00:41;13.58;99.99
71297;SHT31;59082;50.658;4.608;2023-06-01T01:03:07;13.58;99.99
71297;SHT31;59082;50.658;4.608;2023-06-01T01:05:37;13.60;99.99
71297;SHT31;59082;50.658;4.608;2023-06-01T01:08:17;13.61;99.99
71297;SHT31;59082;50.658;4.608;2023-06-01T01:10:53;13.51;99.99
71297;SHT31;59082;50.658;4.608;2023-06-01T01:15:50;13.37;99.99
71297;SHT31;59082;50.658;4.608;2023-06-01T01:21:15;13.32;99.99
71297;SHT31;59082;50.658;4.608;2023-06-01T01:24:30;13.22;99.99
71297;SHT31;59082;50.658;4.608;2023-06-01T01:30:02;13.06;99.99
71297;SHT31;59082;50.658;4.608;2023-06-01T01:32:32;13.10;99.99
71297;SHT31;59082;50.658;4.608;2023-06-01T01:34:59;12.99;99.99
71297;SHT31;59082;50.658;4.608;2023-06-01T01:37:28;12.95;99.99
71297;SHT31;59082;50.658;4.608;2023-06-01T01:39:56;12.95;99.99
71297;SHT31;59082;50.658;4.608;2023-06-01T01:42:22;12.89;99.99
71297;SHT31;59082;50.658;4.608;2023-06-01T01:44:49;12.91;99.99
71297;SHT31;59082;50.658;4.608;2023-06-01T01:48:22;12.82;99.99
71297;SHT31;59082;50.658;4.608;2023-06-01T01:50:32;12.82;99.99
71297;SHT31;59082;50.658;4.608;2023-06-01T01:53:02;12.81;99.99
71297;SHT31;59082;50.658;4.608;2023-06-01T01:55:36;12.65;99.99
71297;SHT31;59082;50.658;4.608;2023-06-01T01:58:04;12.62;99.99
71297;SHT31;59082;50.658;4.608;2023-06-01T02:00:33;12.48;99.99
71297;SHT31;59082;50.658;4.608;2023-06-01T02:03:13;12.48;99.99
71297;SHT31;59082;50.658;4.608;2023-06-01T02:05:45;12.50;99.99
71297;SHT31;59082;50.658;4.608;2023-06-01T02:08:12;12.47;99.99
71297;SHT31;59082;50.658;4.608;2023-06-01T02:10:40;12.38;99.99
71297;SHT31;59082;50.658;4.608;2023-06-01T02:13:09;12.40;99.99
71297;SHT31;59082;50.658;4.608;2023-06-01T02:15:41;12.40;99.99
71297;SHT31;59082;50.658;4.608;2023-06-01T02:18:07;12.50;99.99
71297;SHT31;59082;50.658;4.608;2023-06-01T02:20:33;12.44;99.99
71297;SHT31;59082;50.658;4.608;2023-06-01T02:23:00;12.31;99.99
71297;SHT31;59082;50.658;4.608;2023-06-01T02:25:25;12.33;99.99
71297;SHT31;59082;50.658;4.608;2023-06-01T02:27:51;12.29;99.99
71297;SHT31;59082;50.658;4.608;2023-06-01T02:30:18;12.29;99.99
71297;SHT31;59082;50.658;4.608;2023-06-01T02:32:43;12.26;99.99
71297;SHT31;59082;50.658;4.608;2023-06-01T02:35:16;12.17;99.99
71297;SHT31;59082;50.658;4.608;2023-06-01T02:37:48;12.10;99.99
71297;SHT31;59082;50.658;4.608;2023-06-01T02:40:15;12.20;99.99
71297;SHT31;59082;50.658;4.608;2023-06-01T02:42:43;11.99;99.99
71297;SHT31;59082;50.658;4.608;2023-06-01T02:45:08;11.90;99.99
71297;SHT31;59082;50.658;4.608;2023-06-01T02:47:40;11.82;99.99
71297;SHT31;59082;50.658;4.608;2023-06-01T02:50:07;11.82;99.99
71297;SHT31;59082;50.658;4.608;2023-06-01T02:52:34;11.83;99.99
71297;SHT31;59082;50.658;4.608;2023-06-01T02:55:00;11.86;99.99
71297;SHT31;59082;50.658;4.608;2023-06-01T02:57:26;11.82;99.99
71297;SHT31;59082;50.658;4.608;2023-06-01T02:59:51;11.69;99.99
71297;SHT31;59082;50.658;4.608;2023-06-01T03:02:17;11.92;99.99
71297;SHT31;59082;50.658;4.608;2023-06-01T03:04:45;11.78;99.99
71297;SHT31;59082;50.658;4.608;2023-06-01T03:07:11;11.83;99.99
71297;SHT31;59082;50.658;4.608;2023-06-01T03:09:38;11.78;99.99
71297;SHT31;59082;50.658;4.608;2023-06-01T03:12:06;11.71;99.99
71297;SHT31;59082;50.658;4.608;2023-06-01T03:14:34;11.66;99.99
71297;SHT31;59082;50.658;4.608;2023-06-01T03:17:00;11.57;99.99
71297;SHT31;59082;50.658;4.608;2023-06-01T03:19:31;11.52;99.99
71297;SHT31;59082;50.658;4.608;2023-06-01T03:21:57;11.58;99.99
71297;SHT31;59082;50.658;4.608;2023-06-01T03:24:23;11.44;99.99
71297;SHT31;59082;50.658;4.608;2023-06-01T03:26:52;11.42;99.99
71297;SHT31;59082;50.658;4.608;2023-06-01T03:29:20;11.50;99.99
71297;SHT31;59082;50.658;4.608;2023-06-01T03:31:48;11.39;99.99
71297;SHT31;59082;50.658;4.608;2023-06-01T03:34:15;11.35;99.99
71297;SHT31;59082;50.658;4.608;2023-06-01T03:36:41;11.35;99.99
71297;SHT31;59082;50.658;4.608;2023-06-01T03:39:07;11.34;99.99
71297;SHT31;59082;50.658;4.608;2023-06-01T03:41:36;11.44;99.99
71297;SHT31;59082;50.658;4.608;2023-06-01T03:44:08;11.41;99.99
71297;SHT31;59082;50.658;4.608;2023-06-01T03:46:34;11.37;99.99
71297;SHT31;59082;50.658;4.608;2023-06-01T03:49:01;11.21;99.99
71297;SHT31;59082;50.658;4.608;2023-06-01T03:51:27;11.21;99.99
71297;SHT31;59082;50.658;4.608;2023-06-01T03:53:55;11.20;99.99
71297;SHT31;59082;50.658;4.608;2023-06-01T03:56:21;11.24;99.99
71297;SHT31;59082;50.658;4.608;2023-06-01T03:58:49;11.27;99.99
71297;SHT31;59082;50.658;4.608;2023-06-01T04:01:18;11.30;99.99
71297;SHT31;59082;50.658;4.608;2023-06-01T04:03:45;11.24;99.99
71297;SHT31;59082;50.658;4.608;2023-06-01T04:06:12;11.21;99.99
71297;SHT31;59082;50.658;4.608;2023-06-01T04:08:39;11.21;99.99
71297;SHT31;59082;50.658;4.608;2023-06-01T04:11:15;11.28;99.99
71297;SHT31;59082;50.658;4.608;2023-06-01T04:13:42;11.35;99.99
71297;SHT31;59082;50.658;4.608;2023-06-01T04:16:15;11.31;99.99
71297;SHT31;59082;50.658;4.608;2023-06-01T04:18:43;11.31;99.99
71297;SHT31;59082;50.658;4.608;2023-06-01T04:21:09;11.35;99.99
71297;SHT31;59082;50.658;4.608;2023-06-01T04:23:41;11.31;99.99
71297;SHT31;59082;50.658;4.608;2023-06-01T04:26:08;11.32;99.99
71297;SHT31;59082;50.658;4.608;2023-06-01T04:28:35;11.34;99.99
71297;SHT31;59082;50.658;4.608;2023-06-01T04:31:02;11.37;99.99
71297;SHT31;59082;50.658;4.608;2023-06-01T04:33:29;11.37;99.99
71297;SHT31;59082;50.658;4.608;2023-06-01T04:35:54;11.45;99.99
71297;SHT31;59082;50.658;4.608;2023-06-01T04:38:20;11.42;99.99
71297;SHT31;59082;50.658;4.608;2023-06-01T04:40:47;11.54;99.99
71297;SHT31;59082;50.658;4.608;2023-06-01T04:43:14;11.55;99.99
71297;SHT31;59082;50.658;4.608;2023-06-01T04:45:45;11.52;99.99
71297;SHT31;59082;50.658;4.608;2023-06-01T04:48:11;11.54;99.99
71297;SHT31;59082;50.658;4.608;2023-06-01T04:50:39;11.61;99.99
71297;SHT31;59082;50.658;4.608;2023-06-01T04:53:07;11.65;99.99
71297;SHT31;59082;50.658;4.608;2023-06-01T04:55:32;11.65;99.99
71297;SHT31;59082;50.658;4.608;2023-06-01T04:57:58;11.71;99.99
71297;SHT31;59082;50.658;4.608;2023-06-01T05:00:23;11.75;99.99
71297;SHT31;59082;50.658;4.608;2023-06-01T05:02:50;11.79;99.99
71297;SHT31;59082;50.658;4.608;2023-06-01T05:05:16;11.85;99.99
71297;SHT31;59082;50.658;4.608;2023-06-01T05:07:43;11.86;99.99
71297;SHT31;59082;50.658;4.608;2023-06-01T05:10:11;11.95;99.99
71297;SHT31;59082;50.658;4.608;2023-06-01T05:12:38;11.96;99.99
71297;SHT31;59082;50.658;4.608;2023-06-01T05:15:07;12.04;99.99
71297;SHT31;59082;50.658;4.608;2023-06-01T05:17:33;12.16;99.99
71297;SHT31;59082;50.658;4.608;2023-06-01T05:19:59;12.23;99.99
71297;SHT31;59082;50.658;4.608;2023-06-01T05:22:25;12.31;99.99
71297;SHT31;59082;50.658;4.608;2023-06-01T05:24:51;12.41;99.99
71297;SHT31;59082;50.658;4.608;2023-06-01T05:27:17;12.38;99.99
71297;SHT31;59082;50.658;4.608;2023-06-01T05:29:44;12.47;99.99
71297;SHT31;59082;50.658;4.608;2023-06-01T05:32:11;12.69;99.99
71297;SHT31;59082;50.658;4.608;2023-06-01T05:34:36;12.89;99.99
71297;SHT31;59082;50.658;4.608;2023-06-01T05:37:02;13.13;99.99
71297;SHT31;59082;50.658;4.608;2023-06-01T05:39:28;13.37;99.99
71297;SHT31;59082;50.658;4.608;2023-06-01T05:41:54;13.54;99.99
71297;SHT31;59082;50.658;4.608;2023-06-01T05:44:20;13.91;99.99
71297;SHT31;59082;50.658;4.608;2023-06-01T05:46:46;14.04;99.99
71297;SHT31;59082;50.658;4.608;2023-06-01T05:49:12;14.41;99.99
71297;SHT31;59082;50.658;4.608;2023-06-01T05:51:40;14.11;99.63
71297;SHT31;59082;50.658;4.608;2023-06-01T05:54:06;14.56;99.45
71297;SHT31;59082;50.658;4.608;2023-06-01T05:56:32;14.66;99.28
71297;SHT31;59082;50.658;4.608;2023-06-01T05:58:59;14.68;98.65
71297;SHT31;59082;50.658;4.608;2023-06-01T06:01:25;14.76;98.73
71297;SHT31;59082;50.658;4.608;2023-06-01T06:03:52;14.81;98.44
71297;SHT31;59082;50.658;4.608;2023-06-01T06:06:18;14.95;97.63
71297;SHT31;59082;50.658;4.608;2023-06-01T06:08:43;14.88;97.91
71297;SHT31;59082;50.658;4.608;2023-06-01T06:11:09;14.94;97.43
71297;SHT31;59082;50.658;4.608;2023-06-01T06:13:35;15.04;97.22
71297;SHT31;59082;50.658;4.608;2023-06-01T06:16:00;14.67;97.93
71297;SHT31;59082;50.658;4.608;2023-06-01T06:18:26;14.95;97.43
71297;SHT31;59082;50.658;4.608;2023-06-01T06:20:51;14.71;97.98
71297;SHT31;59082;50.658;4.608;2023-06-01T06:23:17;14.44;98.42
71297;SHT31;59082;50.658;4.608;2023-06-01T06:25:43;14.99;97.43
71297;SHT31;59082;50.658;4.608;2023-06-01T06:28:10;14.83;97.38
71297;SHT31;59082;50.658;4.608;2023-06-01T06:30:35;15.07;97.23
71297;SHT31;59082;50.658;4.608;2023-06-01T06:33:01;15.12;96.71
71297;SHT31;59082;50.658;4.608;2023-06-01T06:35:26;14.92;97.19
71297;SHT31;59082;50.658;4.608;2023-06-01T06:37:52;15.01;97.32
71297;SHT31;59082;50.658;4.608;2023-06-01T06:40:18;15.26;96.59
71297;SHT31;59082;50.658;4.608;2023-06-01T06:42:45;15.19;96.22
71297;SHT31;59082;50.658;4.608;2023-06-01T06:45:11;15.35;95.66
71297;SHT31;59082;50.658;4.608;2023-06-01T06:47:37;15.18;96.11
71297;SHT31;59082;50.658;4.608;2023-06-01T06:50:03;15.24;95.98
71297;SHT31;59082;50.658;4.608;2023-06-01T06:52:29;15.31;95.60
71297;SHT31;59082;50.658;4.608;2023-06-01T06:54:56;15.19;95.40
71297;SHT31;59082;50.658;4.608;2023-06-01T06:57:22;15.59;95.26
71297;SHT31;59082;50.658;4.608;2023-06-01T06:59:47;15.26;95.08
71297;SHT31;59082;50.658;4.608;2023-06-01T07:02:13;15.89;94.48
71297;SHT31;59082;50.658;4.608;2023-06-01T07:04:39;16.17;93.64
71297;SHT31;59082;50.658;4.608;2023-06-01T07:07:05;16.56;92.90
71297;SHT31;59082;50.658;4.608;2023-06-01T07:09:31;16.60;92.34
71297;SHT31;59082;50.658;4.608;2023-06-01T07:11:57;16.59;91.42
71297;SHT31;59082;50.658;4.608;2023-06-01T07:14:23;16.35;92.92
71297;SHT31;59082;50.658;4.608;2023-06-01T07:16:49;15.93;93.28
71297;SHT31;59082;50.658;4.608;2023-06-01T07:19:15;15.90;93.47
71297;SHT31;59082;50.658;4.608;2023-06-01T07:21:40;16.01;93.11
71297;SHT31;59082;50.658;4.608;2023-06-01T07:24:06;16.29;92.44
71297;SHT31;59082;50.658;4.608;2023-06-01T07:26:33;16.31;92.21
71297;SHT31;59082;50.658;4.608;2023-06-01T07:28:59;15.90;93.20
71297;SHT31;59082;50.658;4.608;2023-06-01T07:31:25;16.44;92.32
71297;SHT31;59082;50.658;4.608;2023-06-01T07:33:53;16.69;91.86
71297;SHT31;59082;50.658;4.608;2023-06-01T07:36:22;17.08;90.42
71297;SHT31;59082;50.658;4.608;2023-06-01T07:38:49;16.97;91.19
71297;SHT31;59082;50.658;4.608;2023-06-01T07:41:14;17.18;90.16
71297;SHT31;59082;50.658;4.608;2023-06-01T07:43:40;17.69;88.82
71297;SHT31;59082;50.658;4.608;2023-06-01T07:46:05;17.18;90.50
71297;SHT31;59082;50.658;4.608;2023-06-01T07:48:31;17.45;88.93
71297;SHT31;59082;50.658;4.608;2023-06-01T07:51:02;17.75;88.91
71297;SHT31;59082;50.658;4.608;2023-06-01T07:53:28;18.48;87.06
71297;SHT31;59082;50.658;4.608;2023-06-01T07:55:53;18.54;86.77
71297;SHT31;59082;50.658;4.608;2023-06-01T07:58:19;18.93;85.63
71297;SHT31;59082;50.658;4.608;2023-06-01T08:00:44;19.33;85.04
71297;SHT31;59082;50.658;4.608;2023-06-01T08:03:10;19.65;83.71
71297;SHT31;59082;50.658;4.608;2023-06-01T08:05:36;20.50;83.37
71297;SHT31;59082;50.658;4.608;2023-06-01T08:08:02;20.53;82.48
71297;SHT31;59082;50.658;4.608;2023-06-01T08:10:28;20.63;82.45
71297;SHT31;59082;50.658;4.608;2023-06-01T08:12:54;21.45;80.21
71297;SHT31;59082;50.658;4.608;2023-06-01T08:15:24;20.88;81.24
71297;SHT31;59082;50.658;4.608;2023-06-01T08:17:51;20.10;82.57
71297;SHT31;59082;50.658;4.608;2023-06-01T08:20:17;20.16;81.98
71297;SHT31;59082;50.658;4.608;2023-06-01T08:22:47;20.85;81.20
71297;SHT31;59082;50.658;4.608;2023-06-01T08:25:13;21.11;80.53
71297;SHT31;59082;50.658;4.608;2023-06-01T08:27:40;21.02;79.19
71297;SHT31;59082;50.658;4.608;2023-06-01T08:30:07;21.46;79.81
71297;SHT31;59082;50.658;4.608;2023-06-01T08:32:33;22.21;78.24
71297;SHT31;59082;50.658;4.608;2023-06-01T08:34:58;22.28;77.53
71297;SHT31;59082;50.658;4.608;2023-06-01T08:37:24;22.80;76.57
71297;SHT31;59082;50.658;4.608;2023-06-01T08:39:49;22.08;76.77
71297;SHT31;59082;50.658;4.608;2023-06-01T08:45:06;23.45;75.65
71297;SHT31;59082;50.658;4.608;2023-06-01T08:47:32;22.04;77.01
71297;SHT31;59082;50.658;4.608;2023-06-01T08:49:58;22.42;75.34
71297;SHT31;59082;50.658;4.608;2023-06-01T08:52:25;22.59;76.70
71297;SHT31;59082;50.658;4.608;2023-06-01T08:54:54;23.96;74.47
71297;SHT31;59082;50.658;4.608;2023-06-01T08:57:20;24.31;73.56
71297;SHT31;59082;50.658;4.608;2023-06-01T08:59:46;24.52;72.01
71297;SHT31;59082;50.658;4.608;2023-06-01T09:02:13;25.53;70.44
71297;SHT31;59082;50.658;4.608;2023-06-01T09:04:40;25.24;71.59
71297;SHT31;59082;50.658;4.608;2023-06-01T09:07:08;25.41;70.86
71297;SHT31;59082;50.658;4.608;2023-06-01T09:09:33;26.51;69.12
71297;SHT31;59082;50.658;4.608;2023-06-01T09:12:21;27.50;68.58
71297;SHT31;59082;50.658;4.608;2023-06-01T09:14:49;28.65;65.99
71297;SHT31;59082;50.658;4.608;2023-06-01T09:17:21;29.39;63.78
71297;SHT31;59082;50.658;4.608;2023-06-01T09:19:49;28.99;64.06
71297;SHT31;59082;50.658;4.608;2023-06-01T09:22:15;30.58;61.46
71297;SHT31;59082;50.658;4.608;2023-06-01T09:24:40;32.33;60.41
71297;SHT31;59082;50.658;4.608;2023-06-01T09:27:07;31.99;59.46
71297;SHT31;59082;50.658;4.608;2023-06-01T09:29:32;32.24;59.23
71297;SHT31;59082;50.658;4.608;2023-06-01T09:31:59;31.63;59.66
71297;SHT31;59082;50.658;4.608;2023-06-01T09:34:25;31.64;59.64
71297;SHT31;59082;50.658;4.608;2023-06-01T09:36:53;31.91;58.48
71297;SHT31;59082;50.658;4.608;2023-06-01T09:39:22;33.96;57.91
71297;SHT31;59082;50.658;4.608;2023-06-01T09:44:14;34.40;56.34
71297;SHT31;59082;50.658;4.608;2023-06-01T09:46:50;34.06;57.12
71297;SHT31;59082;50.658;4.608;2023-06-01T09:51:51;34.37;56.63
71297;SHT31;59082;50.658;4.608;2023-06-01T09:54:27;35.47;54.68
71297;SHT31;59082;50.658;4.608;2023-06-01T09:56:53;36.69;53.66
71297;SHT31;59082;50.658;4.608;2023-06-01T09:59:21;37.03;53.36
71297;SHT31;59082;50.658;4.608;2023-06-01T10:01:52;37.32;53.14
71297;SHT31;59082;50.658;4.608;2023-06-01T10:04:26;36.62;52.67
71297;SHT31;59082;50.658;4.608;2023-06-01T10:06:55;37.41;51.47
71297;SHT31;59082;50.658;4.608;2023-06-01T10:09:25;38.05;51.29
71297;SHT31;59082;50.658;4.608;2023-06-01T10:11:55;39.18;50.78
71297;SHT31;59082;50.658;4.608;2023-06-01T10:14:24;38.67;51.44
71297;SHT31;59082;50.658;4.608;2023-06-01T10:16:51;39.10;49.71
71297;SHT31;59082;50.658;4.608;2023-06-01T10:19:19;40.21;49.62
71297;SHT31;59082;50.658;4.608;2023-06-01T10:21:45;37.62;50.63
71297;SHT31;59082;50.658;4.608;2023-06-01T10:24:12;37.97;51.93
71297;SHT31;59082;50.658;4.608;2023-06-01T10:29:31;39.49;49.62
71297;SHT31;59082;50.658;4.608;2023-06-01T10:31:57;41.01;48.49
71297;SHT31;59082;50.658;4.608;2023-06-01T10:34:52;43.17;47.03
71297;SHT31;59082;50.658;4.608;2023-06-01T10:37:18;44.35;46.16
71297;SHT31;59082;50.658;4.608;2023-06-01T10:39:44;42.27;47.24
71297;SHT31;59082;50.658;4.608;2023-06-01T10:47:48;39.73;47.19
71297;SHT31;59082;50.658;4.608;2023-06-01T10:50:16;42.90;47.29
71297;SHT31;59082;50.658;4.608;2023-06-01T10:52:42;41.93;46.28
71297;SHT31;59082;50.658;4.608;2023-06-01T10:57:42;45.42;44.50
71297;SHT31;59082;50.658;4.608;2023-06-01T11:03:02;45.31;43.55
71297;SHT31;59082;50.658;4.608;2023-06-01T11:05:48;42.45;44.55
71297;SHT31;59082;50.658;4.608;2023-06-01T11:13:34;43.81;44.55
71297;SHT31;59082;50.658;4.608;2023-06-01T11:18:51;46.44;42.42
71297;SHT31;59082;50.658;4.608;2023-06-01T11:23:52;46.85;41.85
71297;SHT31;59082;50.658;4.608;2023-06-01T11:26:22;48.03;41.05
71297;SHT31;59082;50.658;4.608;2023-06-01T11:28:51;47.43;41.43
71297;SHT31;59082;50.658;4.608;2023-06-01T11:31:18;45.82;42.02
71297;SHT31;59082;50.658;4.608;2023-06-01T11:33:49;47.43;41.47
71297;SHT31;59082;50.658;4.608;2023-06-01T11:36:19;47.11;41.23
71297;SHT31;59082;50.658;4.608;2023-06-01T11:38:46;48.03;40.01
71297;SHT31;59082;50.658;4.608;2023-06-01T11:41:11;44.53;42.27
71297;SHT31;59082;50.658;4.608;2023-06-01T11:43:37;48.24;40.27
71297;SHT31;59082;50.658;4.608;2023-06-01T11:46:07;47.83;40.85
71297;SHT31;59082;50.658;4.608;2023-06-01T11:48:33;48.21;40.02
71297;SHT31;59082;50.658;4.608;2023-06-01T11:51:00;47.08;40.69
71297;SHT31;59082;50.658;4.608;2023-06-01T11:53:27;47.05;40.84
71297;SHT31;59082;50.658;4.608;2023-06-01T11:55:55;47.91;40.13
71297;SHT31;59082;50.658;4.608;2023-06-01T11:58:24;48.08;39.89
71297;SHT31;59082;50.658;4.608;2023-06-01T12:00:51;46.43;40.59
71297;SHT31;59082;50.658;4.608;2023-06-01T12:03:17;46.43;41.22
71297;SHT31;59082;50.658;4.608;2023-06-01T12:05:43;45.33;40.50
71297;SHT31;59082;50.658;4.608;2023-06-01T12:08:21;47.11;39.88
71297;SHT31;59082;50.658;4.608;2023-06-01T12:10:48;47.15;40.24
71297;SHT31;59082;50.658;4.608;2023-06-01T12:13:15;47.52;41.35
71297;SHT31;59082;50.658;4.608;2023-06-01T12:15:41;45.21;40.07
71297;SHT31;59082;50.658;4.608;2023-06-01T12:18:06;47.80;39.89
71297;SHT31;59082;50.658;4.608;2023-06-01T12:20:40;45.35;39.96
71297;SHT31;59082;50.658;4.608;2023-06-01T12:25:58;49.74;39.84
71297;SHT31;59082;50.658;4.608;2023-06-01T12:28:25;50.37;38.76
71297;SHT31;59082;50.658;4.608;2023-06-01T12:31:14;49.85;39.14
71297;SHT31;59082;50.658;4.608;2023-06-01T12:33:41;47.78;40.12
71297;SHT31;59082;50.658;4.608;2023-06-01T12:36:08;48.97;39.78
71297;SHT31;59082;50.658;4.608;2023-06-01T12:38:54;47.81;39.86
71297;SHT31;59082;50.658;4.608;2023-06-01T12:41:20;46.24;40.75
71297;SHT31;59082;50.658;4.608;2023-06-01T12:43:49;48.24;39.52
71297;SHT31;59082;50.658;4.608;2023-06-01T12:46:22;47.05;40.22
71297;SHT31;59082;50.658;4.608;2023-06-01T12:48:48;48.41;39.32
71297;SHT31;59082;50.658;4.608;2023-06-01T12:51:14;49.77;39.29
71297;SHT31;59082;50.658;4.608;2023-06-01T12:53:40;50.04;39.49
71297;SHT31;59082;50.658;4.608;2023-06-01T12:56:08;48.28;40.30
71297;SHT31;59082;50.658;4.608;2023-06-01T12:58:34;47.97;39.75
71297;SHT31;59082;50.658;4.608;2023-06-01T13:00:59;48.42;39.71
71297;SHT31;59082;50.658;4.608;2023-06-01T13:03:25;48.17;40.52
71297;SHT31;59082;50.658;4.608;2023-06-01T13:05:50;49.57;39.58
71297;SHT31;59082;50.658;4.608;2023-06-01T13:08:17;47.01;40.17
71297;SHT31;59082;50.658;4.608;2023-06-01T13:10:43;48.97;39.82
71297;SHT31;59082;50.658;4.608;2023-06-01T13:13:09;47.15;39.86
71297;SHT31;59082;50.658;4.608;2023-06-01T13:15:39;49.44;40.07
71297;SHT31;59082;50.658;4.608;2023-06-01T13:18:05;49.43;39.46
71297;SHT31;59082;50.658;4.608;2023-06-01T13:20:31;47.38;40.52
71297;SHT31;59082;50.658;4.608;2023-06-01T13:22:57;45.69;41.52
71297;SHT31;59082;50.658;4.608;2023-06-01T13:25:22;47.11;40.46
71297;SHT31;59082;50.658;4.608;2023-06-01T13:27:48;47.13;40.83
71297;SHT31;59082;50.658;4.608;2023-06-01T13:30:14;48.08;39.33
71297;SHT31;59082;50.658;4.608;2023-06-01T13:32:40;48.11;39.99
71297;SHT31;59082;50.658;4.608;2023-06-01T13:35:06;46.82;40.44
71297;SHT31;59082;50.658;4.608;2023-06-01T13:37:31;47.95;39.68
71297;SHT31;59082;50.658;4.608;2023-06-01T13:39:57;47.87;40.12
71297;SHT31;59082;50.658;4.608;2023-06-01T13:42:23;47.86;39.85
71297;SHT31;59082;50.658;4.608;2023-06-01T13:44:48;48.22;39.11
71297;SHT31;59082;50.658;4.608;2023-06-01T13:47:14;46.26;40.72
71297;SHT31;59082;50.658;4.608;2023-06-01T13:49:44;46.68;40.02
71297;SHT31;59082;50.658;4.608;2023-06-01T13:52:10;47.63;39.46
71297;SHT31;59082;50.658;4.608;2023-06-01T13:54:36;47.95;39.47
71297;SHT31;59082;50.658;4.608;2023-06-01T13:57:02;47.52;39.35
71297;SHT31;59082;50.658;4.608;2023-06-01T13:59:33;45.95;40.27
71297;SHT31;59082;50.658;4.608;2023-06-01T14:02:02;47.84;39.69
71297;SHT31;59082;50.658;4.608;2023-06-01T14:04:29;48.58;39.51
71297;SHT31;59082;50.658;4.608;2023-06-01T14:06:54;48.66;39.52
71297;SHT31;59082;50.658;4.608;2023-06-01T14:09:21;47.16;39.85
71297;SHT31;59082;50.658;4.608;2023-06-01T14:11:47;45.86;40.28
71297;SHT31;59082;50.658;4.608;2023-06-01T14:14:12;47.69;40.56
71297;SHT31;59082;50.658;4.608;2023-06-01T14:16:38;48.03;40.17
71297;SHT31;59082;50.658;4.608;2023-06-01T14:19:03;45.93;40.89
71297;SHT31;59082;50.658;4.608;2023-06-01T14:21:29;47.08;39.88
71297;SHT31;59082;50.658;4.608;2023-06-01T14:23:56;46.37;40.55
71297;SHT31;59082;50.658;4.608;2023-06-01T14:26:22;45.86;40.37
71297;SHT31;59082;50.658;4.608;2023-06-01T14:28:48;46.26;40.13
71297;SHT31;59082;50.658;4.608;2023-06-01T14:31:13;43.49;41.55
71297;SHT31;59082;50.658;4.608;2023-06-01T14:33:39;44.53;41.14
71297;SHT31;59082;50.658;4.608;2023-06-01T14:36:06;44.53;41.17
71297;SHT31;59082;50.658;4.608;2023-06-01T14:38:31;45.52;40.60
71297;SHT31;59082;50.658;4.608;2023-06-01T14:40:57;44.29;40.46
71297;SHT31;59082;50.658;4.608;2023-06-01T14:43:22;43.37;40.54
71297;SHT31;59082;50.658;4.608;2023-06-01T14:45:48;43.34;41.36
71297;SHT31;59082;50.658;4.608;2023-06-01T14:48:13;42.87;41.48
71297;SHT31;59082;50.658;4.608;2023-06-01T14:50:39;41.25;42.03
71297;SHT31;59082;50.658;4.608;2023-06-01T14:53:04;42.28;41.71
71297;SHT31;59082;50.658;4.608;2023-06-01T14:55:30;40.49;42.77
71297;SHT31;59082;50.658;4.608;2023-06-01T14:57:55;41.53;41.51
71297;SHT31;59082;50.658;4.608;2023-06-01T15:00:22;41.59;41.69
71297;SHT31;59082;50.658;4.608;2023-06-01T15:02:47;41.51;42.68
71297;SHT31;59082;50.658;4.608;2023-06-01T15:05:13;41.31;43.25
71297;SHT31;59082;50.658;4.608;2023-06-01T15:07:40;40.48;43.63
71297;SHT31;59082;50.658;4.608;2023-06-01T15:10:07;40.39;44.94
71297;SHT31;59082;50.658;4.608;2023-06-01T15:12:32;38.71;44.94
71297;SHT31;59082;50.658;4.608;2023-06-01T15:14:58;38.95;44.44
71297;SHT31;59082;50.658;4.608;2023-06-01T15:17:23;37.59;45.93
71297;SHT31;59082;50.658;4.608;2023-06-01T15:19:49;38.17;44.94
71297;SHT31;59082;50.658;4.608;2023-06-01T15:22:14;38.55;45.10
71297;SHT31;59082;50.658;4.608;2023-06-01T15:24:40;37.25;45.52
71297;SHT31;59082;50.658;4.608;2023-06-01T15:27:07;36.73;45.23
71297;SHT31;59082;50.658;4.608;2023-06-01T15:29:33;36.77;46.20
71297;SHT31;59082;50.658;4.608;2023-06-01T15:31:58;36.08;46.62
71297;SHT31;59082;50.658;4.608;2023-06-01T15:34:24;36.59;47.09
71297;SHT31;59082;50.658;4.608;2023-06-01T15:36:50;35.30;48.47
71297;SHT31;59082;50.658;4.608;2023-06-01T15:39:16;34.17;49.11
71297;SHT31;59082;50.658;4.608;2023-06-01T15:41:41;34.33;49.50
71297;SHT31;59082;50.658;4.608;2023-06-01T15:44:10;34.47;50.25
71297;SHT31;59082;50.658;4.608;2023-06-01T15:46:36;34.25;50.22
71297;SHT31;59082;50.658;4.608;2023-06-01T15:49:02;33.21;51.55
71297;SHT31;59082;50.658;4.608;2023-06-01T15:51:28;32.87;51.59
71297;SHT31;59082;50.658;4.608;2023-06-01T15:53:54;32.60;52.88
71297;SHT31;59082;50.658;4.608;2023-06-01T15:56:19;32.64;54.04
71297;SHT31;59082;50.658;4.608;2023-06-01T15:58:46;32.87;52.53
71297;SHT31;59082;50.658;4.608;2023-06-01T16:01:18;31.71;54.12
71297;SHT31;59082;50.658;4.608;2023-06-01T16:03:44;31.49;54.15
71297;SHT31;59082;50.658;4.608;2023-06-01T16:06:11;30.16;55.94
71297;SHT31;59082;50.658;4.608;2023-06-01T16:08:37;28.62;57.28
71297;SHT31;59082;50.658;4.608;2023-06-01T16:11:04;26.32;60.18
71297;SHT31;59082;50.658;4.608;2023-06-01T16:13:30;25.53;61.56
71297;SHT31;59082;50.658;4.608;2023-06-01T16:15:56;25.68;61.97